Lake Country Regional Airport
KW63 : now visible

Airfield :











YOU CAN JOIN US ON...

 
LOGIN :

Register | Disclaimer

   EN    FR    IT 

 









Legend :    VFR   Marginal VFR   IFR   Intensive IFR   Very Intensive IFR
Visi :
Ceiling :
>= 8 km
>= 3000ft
5 to 8 km
1000 to 3000 ft
1500m to 5 km
500 to 1000 ft
800 to 1500m
200 to 500 ft
< 800m
< 200 ft
Symbols :   Thunderstorms  Fog  Heavy snow  Heavy precipitations  Wind > 20 kt






- Airport Elevation : 421 ft


KW63 - Lake Country Regional

CURRENT METAR :
  • 110735Z AUTO 33005KT 5SM OVC007 04/04 A3021 RMK AO1

EXPIRED METARs :
  • 110715Z AUTO 32006KT 5SM OVC007 05/05 A3020 RMK AO1
  • 110655Z AUTO 32007KT 7SM BKN007 BKN014 OVC060 05/05 A3019 RMK AO1 P0003
  • 110635Z AUTO 31007KT 5SM SCT012 BKN025 OVC047 05/05 A3019 RMK AO1 P0002
  • 110615Z AUTO 30011G18KT 5SM SCT010 BKN015 OVC027 05/05 A3019 RMK AO1
  • 110555Z AUTO 30004G08KT 7SM BKN014 BKN021 OVC050 06/06 A3018 RMK AO1 P0001
  • 110535Z AUTO 30005KT 7SM SCT017 OVC050 06/06 A3017 RMK AO1
  • 110515Z AUTO 31007KT 10SM OVC050 06/06 A3016 RMK AO1
  • 110455Z AUTO 28003KT 10SM SCT037 OVC048 06/06 A3017 RMK AO1

TAF N/A



MET'MAP, your aeronautical weather chart ! - Copyright ORBIFLY December 2007 - Disclaimer

ORBIFLY MET'MAP TEAM :

Programming & Development : Alexandra Zaïnal
Concept & original design : Baudouin d'Aumeries
Assistance for programming : Marc-Olivier Méhu
Technical & hardware support : Manuel Goepfert

Contact : metmap@orbifly.com




SOURCES & CREDITS :

   NOAA       Earth
Advisory